createdAt,value
2023-05-13T00:08:30.079Z,9.90
2023-05-13T00:28:31.751Z,9.20
2023-05-13T00:48:33.412Z,11.50
2023-05-13T01:08:35.168Z,10.73
2023-05-13T01:28:36.744Z,11.45
2023-05-13T01:48:39.736Z,11.98
2023-05-13T02:08:41.838Z,13.00
2023-05-13T02:28:43.702Z,12.85
2023-05-13T02:48:48.656Z,12.63
2023-05-13T03:08:50.379Z,12.32
2023-05-13T03:28:52.151Z,11.95
2023-05-13T03:48:54.548Z,11.95
2023-05-13T04:08:56.701Z,11.90
2023-05-13T04:29:01.196Z,11.68
2023-05-13T04:49:02.927Z,11.25
2023-05-13T05:09:05.082Z,11.95
2023-05-13T05:29:06.984Z,10.55
2023-05-13T05:49:08.884Z,10.82
2023-05-13T06:09:11.689Z,9.05
2023-05-13T06:29:13.522Z,8.43
2023-05-13T06:49:15.305Z,8.48
2023-05-13T07:09:17.054Z,8.35
2023-05-13T07:29:18.622Z,8.80
2023-05-13T07:49:20.179Z,9.38
2023-05-13T08:09:21.678Z,6.45
2023-05-13T08:29:23.517Z,5.95
2023-05-13T08:49:25.060Z,5.10
2023-05-13T09:09:26.593Z,4.68
2023-05-13T09:29:28.233Z,6.32
2023-05-13T09:49:29.756Z,6.35
2023-05-13T10:09:31.345Z,6.38
2023-05-13T10:29:33.012Z,6.10
2023-05-13T10:49:34.944Z,6.38
2023-05-13T11:09:36.485Z,6.93
2023-05-13T11:29:38.026Z,7.03
2023-05-13T11:49:39.776Z,9.57
2023-05-13T12:09:41.345Z,11.70
2023-05-13T12:29:42.985Z,8.45
2023-05-13T12:49:44.718Z,8.55
2023-05-13T13:09:46.347Z,8.43
2023-05-13T13:29:47.922Z,8.07
2023-05-13T13:49:49.536Z,8.75
2023-05-13T14:09:51.188Z,7.22
2023-05-13T14:29:52.935Z,7.95
2023-05-13T14:49:54.545Z,9.45
2023-05-13T15:09:56.122Z,10.02
2023-05-13T15:29:57.748Z,10.13
2023-05-13T15:49:59.379Z,11.05
2023-05-13T16:10:01.081Z,11.07
2023-05-13T16:30:04.457Z,11.73
2023-05-13T16:50:06.269Z,15.23
2023-05-13T17:10:07.828Z,16.90
2023-05-13T17:30:09.425Z,18.77
2023-05-13T17:50:11.060Z,19.85
2023-05-13T18:10:12.634Z,23.52
2023-05-13T18:30:14.245Z,20.60
2023-05-13T18:50:15.851Z,20.45
2023-05-13T19:10:17.333Z,18.20
2023-05-13T19:30:18.834Z,16.83
2023-05-13T19:50:20.616Z,16.02
2023-05-13T20:10:22.642Z,14.80
2023-05-13T20:30:24.801Z,15.60
2023-05-13T20:50:27.038Z,14.70
2023-05-13T21:10:28.817Z,14.43
2023-05-13T21:30:30.773Z,15.55
2023-05-13T21:50:32.436Z,17.45
2023-05-13T22:10:34.088Z,17.13
2023-05-13T22:30:36.604Z,15.73
2023-05-13T22:50:38.173Z,14.38
2023-05-13T23:10:39.823Z,13.35
2023-05-13T23:30:41.459Z,10.35
2023-05-13T23:50:47.185Z,10.40
